Weather at Variseia Border Post helipad

Public forecast

Using degrees Celsius for public forecast. Weather courtesy of forecast.io.

Closest aviation weather report (METAR) to Variseia Border Post helipad

Closest report is Paphos International Airport, 27.4 nm (50.7 km) SSW.

2024/06/16 21:00 (retrieved 35 minutes ago)

LCPH 162100Z AUTO 32003KT 9999 NCD 25/23 Q1007 NOSIG

Closest aviation forecast (TAF) to Variseia Border Post helipad

Closest forecast is Paphos International Airport, 27.4 nm (50.7 km) SSW.

2024/06/16 18:28 (retrieved 3 hours ago)

TAF LCPH 161730Z 1618/1718 31010KT 9999 FEW015 BECMG 1618/1620 01007KT PROB40 TEMPO 1618/1706 BKN010 BECMG 1706/1709 22010KT BECMG 1713/1716 30008KT